sensor_id;sensor_type;location;lat;lon;timestamp;P1;durP1;ratioP1;P2;durP2;ratioP2
52992;SDS011;38875;52.216;21.040;2022-09-09T00:03:53;15.60;;;7.20;;
52992;SDS011;38875;52.216;21.040;2022-09-09T00:06:32;14.50;;;6.50;;
52992;SDS011;38875;52.216;21.040;2022-09-09T00:14:23;21.48;;;8.23;;
52992;SDS011;38875;52.216;21.040;2022-09-09T00:17:09;18.38;;;7.32;;
52992;SDS011;38875;52.216;21.040;2022-09-09T00:19:46;18.10;;;8.27;;
52992;SDS011;38875;52.216;21.040;2022-09-09T00:22:20;15.60;;;7.20;;
52992;SDS011;38875;52.216;21.040;2022-09-09T00:24:51;16.85;;;7.07;;
52992;SDS011;38875;52.216;21.040;2022-09-09T00:27:36;17.17;;;8.07;;
52992;SDS011;38875;52.216;21.040;2022-09-09T00:32:49;18.23;;;7.68;;
52992;SDS011;38875;52.216;21.040;2022-09-09T00:35:33;19.17;;;8.20;;
52992;SDS011;38875;52.216;21.040;2022-09-09T00:38:03;17.90;;;8.45;;
52992;SDS011;38875;52.216;21.040;2022-09-09T00:40:38;18.73;;;7.45;;
52992;SDS011;38875;52.216;21.040;2022-09-09T00:43:27;20.83;;;8.75;;
52992;SDS011;38875;52.216;21.040;2022-09-09T00:48:57;15.57;;;7.75;;
52992;SDS011;38875;52.216;21.040;2022-09-09T00:57:04;17.25;;;9.60;;
52992;SDS011;38875;52.216;21.040;2022-09-09T01:05:20;19.33;;;8.73;;
52992;SDS011;38875;52.216;21.040;2022-09-09T01:07:49;19.65;;;9.15;;
52992;SDS011;38875;52.216;21.040;2022-09-09T01:10:50;19.90;;;9.85;;
52992;SDS011;38875;52.216;21.040;2022-09-09T01:13:23;21.98;;;10.10;;
52992;SDS011;38875;52.216;21.040;2022-09-09T01:15:56;18.08;;;7.75;;
52992;SDS011;38875;52.216;21.040;2022-09-09T01:18:29;19.23;;;9.82;;
52992;SDS011;38875;52.216;21.040;2022-09-09T01:24:03;21.10;;;10.85;;
52992;SDS011;38875;52.216;21.040;2022-09-09T01:26:40;20.33;;;9.85;;
52992;SDS011;38875;52.216;21.040;2022-09-09T01:29:08;21.30;;;9.52;;
52992;SDS011;38875;52.216;21.040;2022-09-09T01:31:37;17.15;;;9.05;;
52992;SDS011;38875;52.216;21.040;2022-09-09T01:34:13;20.58;;;8.80;;
52992;SDS011;38875;52.216;21.040;2022-09-09T01:36:49;18.77;;;9.27;;
52992;SDS011;38875;52.216;21.040;2022-09-09T01:39:18;20.20;;;9.73;;
52992;SDS011;38875;52.216;21.040;2022-09-09T01:41:46;17.13;;;9.98;;
52992;SDS011;38875;52.216;21.040;2022-09-09T01:44:11;19.10;;;10.18;;
52992;SDS011;38875;52.216;21.040;2022-09-09T01:46:37;20.83;;;9.80;;
52992;SDS011;38875;52.216;21.040;2022-09-09T01:49:03;20.85;;;10.23;;
52992;SDS011;38875;52.216;21.040;2022-09-09T01:51:32;19.00;;;9.57;;
52992;SDS011;38875;52.216;21.040;2022-09-09T01:53:59;18.23;;;9.80;;
52992;SDS011;38875;52.216;21.040;2022-09-09T01:59:03;19.05;;;10.57;;
52992;SDS011;38875;52.216;21.040;2022-09-09T02:04:29;19.25;;;10.40;;
52992;SDS011;38875;52.216;21.040;2022-09-09T02:06:57;24.08;;;10.77;;
52992;SDS011;38875;52.216;21.040;2022-09-09T02:09:25;21.52;;;11.98;;
52992;SDS011;38875;52.216;21.040;2022-09-09T02:11:57;23.77;;;11.43;;
52992;SDS011;38875;52.216;21.040;2022-09-09T02:14:30;23.92;;;10.38;;
52992;SDS011;38875;52.216;21.040;2022-09-09T02:17:03;22.45;;;11.82;;
52992;SDS011;38875;52.216;21.040;2022-09-09T02:19:48;19.00;;;10.45;;
52992;SDS011;38875;52.216;21.040;2022-09-09T02:22:18;19.08;;;10.50;;
52992;SDS011;38875;52.216;21.040;2022-09-09T02:24:48;21.67;;;10.20;;
52992;SDS011;38875;52.216;21.040;2022-09-09T02:27:16;21.25;;;11.20;;
52992;SDS011;38875;52.216;21.040;2022-09-09T02:29:44;20.20;;;10.75;;
52992;SDS011;38875;52.216;21.040;2022-09-09T02:32:13;23.15;;;12.52;;
52992;SDS011;38875;52.216;21.040;2022-09-09T02:34:43;21.02;;;11.85;;
52992;SDS011;38875;52.216;21.040;2022-09-09T02:37:13;20.02;;;11.02;;
52992;SDS011;38875;52.216;21.040;2022-09-09T02:39:42;23.65;;;11.60;;
52992;SDS011;38875;52.216;21.040;2022-09-09T02:42:08;24.38;;;11.95;;
52992;SDS011;38875;52.216;21.040;2022-09-09T02:44:34;22.77;;;12.32;;
52992;SDS011;38875;52.216;21.040;2022-09-09T02:47:35;22.73;;;12.48;;
52992;SDS011;38875;52.216;21.040;2022-09-09T02:50:14;20.58;;;11.25;;
52992;SDS011;38875;52.216;21.040;2022-09-09T02:58:25;24.67;;;12.48;;
52992;SDS011;38875;52.216;21.040;2022-09-09T03:00:50;23.05;;;13.02;;
52992;SDS011;38875;52.216;21.040;2022-09-09T03:03:17;23.80;;;13.35;;
52992;SDS011;38875;52.216;21.040;2022-09-09T03:05:44;23.65;;;12.90;;
52992;SDS011;38875;52.216;21.040;2022-09-09T03:08:10;24.25;;;14.43;;
52992;SDS011;38875;52.216;21.040;2022-09-09T03:10:38;22.67;;;12.82;;
52992;SDS011;38875;52.216;21.040;2022-09-09T03:13:04;22.50;;;12.25;;
52992;SDS011;38875;52.216;21.040;2022-09-09T03:15:31;24.50;;;12.88;;
52992;SDS011;38875;52.216;21.040;2022-09-09T03:17:58;23.83;;;12.60;;
52992;SDS011;38875;52.216;21.040;2022-09-09T03:20:25;19.52;;;12.07;;
52992;SDS011;38875;52.216;21.040;2022-09-09T03:22:53;21.23;;;12.82;;
52992;SDS011;38875;52.216;21.040;2022-09-09T03:25:20;23.48;;;12.52;;
52992;SDS011;38875;52.216;21.040;2022-09-09T03:27:46;26.73;;;12.85;;
52992;SDS011;38875;52.216;21.040;2022-09-09T03:30:11;20.58;;;11.82;;
52992;SDS011;38875;52.216;21.040;2022-09-09T03:32:37;23.20;;;13.38;;
52992;SDS011;38875;52.216;21.040;2022-09-09T03:35:03;24.98;;;14.13;;
52992;SDS011;38875;52.216;21.040;2022-09-09T03:37:29;21.17;;;11.52;;
52992;SDS011;38875;52.216;21.040;2022-09-09T03:39:55;24.90;;;13.05;;
52992;SDS011;38875;52.216;21.040;2022-09-09T03:42:21;26.10;;;14.15;;
52992;SDS011;38875;52.216;21.040;2022-09-09T03:44:47;23.52;;;13.40;;
52992;SDS011;38875;52.216;21.040;2022-09-09T03:47:15;23.35;;;12.82;;
52992;SDS011;38875;52.216;21.040;2022-09-09T03:49:42;23.92;;;12.82;;
52992;SDS011;38875;52.216;21.040;2022-09-09T03:52:08;21.23;;;12.75;;
52992;SDS011;38875;52.216;21.040;2022-09-09T03:54:34;26.05;;;14.25;;
52992;SDS011;38875;52.216;21.040;2022-09-09T03:57:01;24.08;;;14.20;;
52992;SDS011;38875;52.216;21.040;2022-09-09T03:59:27;21.42;;;12.73;;
52992;SDS011;38875;52.216;21.040;2022-09-09T04:01:53;22.33;;;13.38;;
52992;SDS011;38875;52.216;21.040;2022-09-09T04:04:20;22.08;;;14.02;;
52992;SDS011;38875;52.216;21.040;2022-09-09T04:06:46;21.58;;;12.57;;
52992;SDS011;38875;52.216;21.040;2022-09-09T04:09:13;23.00;;;13.18;;
52992;SDS011;38875;52.216;21.040;2022-09-09T04:11:40;23.02;;;12.85;;
52992;SDS011;38875;52.216;21.040;2022-09-09T04:14:05;21.25;;;12.65;;
52992;SDS011;38875;52.216;21.040;2022-09-09T04:16:34;24.55;;;13.23;;
52992;SDS011;38875;52.216;21.040;2022-09-09T04:19:03;23.67;;;12.32;;
52992;SDS011;38875;52.216;21.040;2022-09-09T04:21:29;19.80;;;12.30;;
52992;SDS011;38875;52.216;21.040;2022-09-09T04:23:55;20.52;;;11.20;;
52992;SDS011;38875;52.216;21.040;2022-09-09T04:26:22;18.55;;;11.65;;
52992;SDS011;38875;52.216;21.040;2022-09-09T04:28:47;18.15;;;10.88;;
52992;SDS011;38875;52.216;21.040;2022-09-09T04:31:18;20.25;;;11.90;;
52992;SDS011;38875;52.216;21.040;2022-09-09T04:33:45;20.17;;;12.80;;
52992;SDS011;38875;52.216;21.040;2022-09-09T04:36:12;18.92;;;11.73;;
52992;SDS011;38875;52.216;21.040;2022-09-09T04:38:38;18.45;;;10.80;;
52992;SDS011;38875;52.216;21.040;2022-09-09T04:41:03;16.98;;;11.10;;
52992;SDS011;38875;52.216;21.040;2022-09-09T04:43:30;15.82;;;9.35;;
52992;SDS011;38875;52.216;21.040;2022-09-09T04:45:56;17.63;;;10.40;;
52992;SDS011;38875;52.216;21.040;2022-09-09T04:48:22;20.05;;;11.77;;
52992;SDS011;38875;52.216;21.040;2022-09-09T04:50:55;16.92;;;10.15;;
52992;SDS011;38875;52.216;21.040;2022-09-09T04:53:21;20.70;;;11.73;;
52992;SDS011;38875;52.216;21.040;2022-09-09T04:55:49;20.13;;;11.88;;
52992;SDS011;38875;52.216;21.040;2022-09-09T04:58:14;18.52;;;11.15;;
52992;SDS011;38875;52.216;21.040;2022-09-09T05:00:40;17.25;;;10.02;;
52992;SDS011;38875;52.216;21.040;2022-09-09T05:03:06;16.45;;;9.98;;
52992;SDS011;38875;52.216;21.040;2022-09-09T05:05:34;19.55;;;10.15;;
52992;SDS011;38875;52.216;21.040;2022-09-09T05:08:00;17.27;;;10.55;;
52992;SDS011;38875;52.216;21.040;2022-09-09T05:10:28;16.92;;;10.40;;
52992;SDS011;38875;52.216;21.040;2022-09-09T05:12:53;16.48;;;9.27;;
52992;SDS011;38875;52.216;21.040;2022-09-09T05:15:19;18.10;;;9.60;;
52992;SDS011;38875;52.216;21.040;2022-09-09T05:17:46;19.23;;;10.88;;
52992;SDS011;38875;52.216;21.040;2022-09-09T05:20:12;15.38;;;9.93;;
52992;SDS011;38875;52.216;21.040;2022-09-09T05:22:38;15.40;;;10.38;;
52992;SDS011;38875;52.216;21.040;2022-09-09T05:25:04;17.05;;;10.85;;
52992;SDS011;38875;52.216;21.040;2022-09-09T05:27:30;18.67;;;11.88;;
52992;SDS011;38875;52.216;21.040;2022-09-09T05:29:58;22.30;;;12.70;;
52992;SDS011;38875;52.216;21.040;2022-09-09T05:32:24;16.40;;;10.57;;
52992;SDS011;38875;52.216;21.040;2022-09-09T05:34:49;18.40;;;11.68;;
52992;SDS011;38875;52.216;21.040;2022-09-09T05:37:15;16.50;;;10.32;;
52992;SDS011;38875;52.216;21.040;2022-09-09T05:39:42;14.93;;;10.13;;
52992;SDS011;38875;52.216;21.040;2022-09-09T05:42:07;18.33;;;10.18;;
52992;SDS011;38875;52.216;21.040;2022-09-09T05:44:33;16.98;;;11.32;;
52992;SDS011;38875;52.216;21.040;2022-09-09T05:47:00;16.48;;;9.43;;
52992;SDS011;38875;52.216;21.040;2022-09-09T05:49:27;16.83;;;10.95;;
52992;SDS011;38875;52.216;21.040;2022-09-09T05:51:53;15.23;;;9.10;;
52992;SDS011;38875;52.216;21.040;2022-09-09T05:54:19;16.33;;;9.43;;
52992;SDS011;38875;52.216;21.040;2022-09-09T05:56:45;14.43;;;8.40;;
52992;SDS011;38875;52.216;21.040;2022-09-09T05:59:12;14.40;;;9.40;;
52992;SDS011;38875;52.216;21.040;2022-09-09T06:01:38;14.43;;;9.38;;
52992;SDS011;38875;52.216;21.040;2022-09-09T06:04:07;19.27;;;10.40;;
52992;SDS011;38875;52.216;21.040;2022-09-09T06:06:34;15.15;;;9.05;;
52992;SDS011;38875;52.216;21.040;2022-09-09T06:09:02;15.15;;;9.25;;
52992;SDS011;38875;52.216;21.040;2022-09-09T06:11:31;13.25;;;8.45;;
52992;SDS011;38875;52.216;21.040;2022-09-09T06:13:58;16.27;;;8.90;;
52992;SDS011;38875;52.216;21.040;2022-09-09T06:16:25;16.13;;;9.07;;
52992;SDS011;38875;52.216;21.040;2022-09-09T06:18:52;15.68;;;9.40;;
52992;SDS011;38875;52.216;21.040;2022-09-09T06:21:21;26.70;;;18.40;;
52992;SDS011;38875;52.216;21.040;2022-09-09T06:23:48;18.10;;;10.80;;
52992;SDS011;38875;52.216;21.040;2022-09-09T06:26:14;19.17;;;11.57;;
52992;SDS011;38875;52.216;21.040;2022-09-09T06:28:42;17.90;;;10.75;;
52992;SDS011;38875;52.216;21.040;2022-09-09T06:31:09;17.00;;;10.27;;
52992;SDS011;38875;52.216;21.040;2022-09-09T06:33:37;15.57;;;10.50;;
52992;SDS011;38875;52.216;21.040;2022-09-09T06:36:11;15.80;;;10.18;;
52992;SDS011;38875;52.216;21.040;2022-09-09T06:38:39;16.98;;;11.20;;
52992;SDS011;38875;52.216;21.040;2022-09-09T06:41:05;19.77;;;12.43;;
52992;SDS011;38875;52.216;21.040;2022-09-09T06:43:31;17.02;;;11.82;;
52992;SDS011;38875;52.216;21.040;2022-09-09T06:45:59;19.08;;;11.55;;
52992;SDS011;38875;52.216;21.040;2022-09-09T06:48:29;14.90;;;9.65;;
52992;SDS011;38875;52.216;21.040;2022-09-09T06:51:06;18.70;;;11.85;;
52992;SDS011;38875;52.216;21.040;2022-09-09T06:53:33;19.80;;;11.95;;
52992;SDS011;38875;52.216;21.040;2022-09-09T06:56:17;15.77;;;10.40;;
52992;SDS011;38875;52.216;21.040;2022-09-09T06:58:51;17.13;;;11.80;;
52992;SDS011;38875;52.216;21.040;2022-09-09T07:01:19;19.80;;;13.32;;
52992;SDS011;38875;52.216;21.040;2022-09-09T07:03:47;18.13;;;12.70;;
52992;SDS011;38875;52.216;21.040;2022-09-09T07:06:25;16.88;;;11.55;;
52992;SDS011;38875;52.216;21.040;2022-09-09T07:08:55;18.58;;;12.63;;
52992;SDS011;38875;52.216;21.040;2022-09-09T07:11:24;20.23;;;13.23;;
52992;SDS011;38875;52.216;21.040;2022-09-09T07:14:02;23.52;;;14.02;;
52992;SDS011;38875;52.216;21.040;2022-09-09T07:16:28;22.10;;;14.02;;
52992;SDS011;38875;52.216;21.040;2022-09-09T07:18:56;21.52;;;14.35;;
52992;SDS011;38875;52.216;21.040;2022-09-09T07:21:26;21.83;;;14.45;;
52992;SDS011;38875;52.216;21.040;2022-09-09T07:23:54;22.65;;;14.05;;
52992;SDS011;38875;52.216;21.040;2022-09-09T07:26:21;23.92;;;15.07;;
52992;SDS011;38875;52.216;21.040;2022-09-09T07:28:48;21.38;;;13.65;;
52992;SDS011;38875;52.216;21.040;2022-09-09T07:31:19;20.55;;;14.68;;
52992;SDS011;38875;52.216;21.040;2022-09-09T07:33:46;26.30;;;15.57;;
52992;SDS011;38875;52.216;21.040;2022-09-09T07:36:14;24.98;;;15.57;;
52992;SDS011;38875;52.216;21.040;2022-09-09T07:38:44;22.95;;;15.48;;
52992;SDS011;38875;52.216;21.040;2022-09-09T07:41:13;24.63;;;14.27;;
52992;SDS011;38875;52.216;21.040;2022-09-09T07:43:41;23.33;;;15.65;;
52992;SDS011;38875;52.216;21.040;2022-09-09T07:46:09;22.58;;;14.80;;
52992;SDS011;38875;52.216;21.040;2022-09-09T07:48:37;27.27;;;14.60;;
52992;SDS011;38875;52.216;21.040;2022-09-09T07:51:06;23.63;;;15.07;;
52992;SDS011;38875;52.216;21.040;2022-09-09T07:53:40;24.20;;;16.33;;
52992;SDS011;38875;52.216;21.040;2022-09-09T07:56:07;26.63;;;16.95;;
52992;SDS011;38875;52.216;21.040;2022-09-09T07:58:39;25.30;;;14.90;;
52992;SDS011;38875;52.216;21.040;2022-09-09T08:01:16;22.58;;;15.07;;
52992;SDS011;38875;52.216;21.040;2022-09-09T08:03:43;24.00;;;15.15;;
52992;SDS011;38875;52.216;21.040;2022-09-09T08:06:13;21.30;;;14.60;;
52992;SDS011;38875;52.216;21.040;2022-09-09T08:08:39;22.45;;;14.40;;
52992;SDS011;38875;52.216;21.040;2022-09-09T08:11:08;26.58;;;15.75;;
52992;SDS011;38875;52.216;21.040;2022-09-09T08:13:37;24.13;;;16.77;;
52992;SDS011;38875;52.216;21.040;2022-09-09T08:16:07;26.48;;;16.63;;
52992;SDS011;38875;52.216;21.040;2022-09-09T08:18:35;24.90;;;15.93;;
52992;SDS011;38875;52.216;21.040;2022-09-09T08:21:20;25.00;;;17.23;;
52992;SDS011;38875;52.216;21.040;2022-09-09T08:23:49;23.65;;;15.15;;
52992;SDS011;38875;52.216;21.040;2022-09-09T08:26:18;22.02;;;15.38;;
52992;SDS011;38875;52.216;21.040;2022-09-09T08:28:47;25.60;;;16.92;;
52992;SDS011;38875;52.216;21.040;2022-09-09T08:31:20;25.48;;;15.88;;
52992;SDS011;38875;52.216;21.040;2022-09-09T08:33:48;29.83;;;16.90;;
52992;SDS011;38875;52.216;21.040;2022-09-09T08:36:18;24.48;;;17.33;;
52992;SDS011;38875;52.216;21.040;2022-09-09T08:38:49;26.63;;;16.67;;
52992;SDS011;38875;52.216;21.040;2022-09-09T08:41:30;27.80;;;17.83;;
52992;SDS011;38875;52.216;21.040;2022-09-09T08:46:36;29.30;;;18.95;;
52992;SDS011;38875;52.216;21.040;2022-09-09T08:49:24;27.42;;;18.85;;
52992;SDS011;38875;52.216;21.040;2022-09-09T08:52:22;33.65;;;19.80;;
52992;SDS011;38875;52.216;21.040;2022-09-09T08:54:52;32.15;;;19.40;;
52992;SDS011;38875;52.216;21.040;2022-09-09T08:57:27;29.33;;;19.05;;
52992;SDS011;38875;52.216;21.040;2022-09-09T08:59:57;29.08;;;19.05;;
52992;SDS011;38875;52.216;21.040;2022-09-09T09:02:37;31.23;;;18.67;;
52992;SDS011;38875;52.216;21.040;2022-09-09T09:11:05;32.00;;;18.67;;
52992;SDS011;38875;52.216;21.040;2022-09-09T09:13:18;34.20;;;18.67;;
52992;SDS011;38875;52.216;21.040;2022-09-09T09:15:54;31.10;;;19.55;;
52992;SDS011;38875;52.216;21.040;2022-09-09T09:18:25;31.00;;;18.73;;
52992;SDS011;38875;52.216;21.040;2022-09-09T09:23:57;29.52;;;19.75;;
52992;SDS011;38875;52.216;21.040;2022-09-09T09:26:25;34.25;;;20.05;;
52992;SDS011;38875;52.216;21.040;2022-09-09T09:28:56;32.08;;;20.88;;
52992;SDS011;38875;52.216;21.040;2022-09-09T09:31:24;34.97;;;21.25;;
52992;SDS011;38875;52.216;21.040;2022-09-09T09:33:53;29.50;;;18.42;;
52992;SDS011;38875;52.216;21.040;2022-09-09T09:36:21;31.90;;;17.35;;
52992;SDS011;38875;52.216;21.040;2022-09-09T09:38:58;30.70;;;20.33;;
52992;SDS011;38875;52.216;21.040;2022-09-09T09:41:30;30.75;;;18.20;;
52992;SDS011;38875;52.216;21.040;2022-09-09T09:43:56;37.22;;;21.00;;
52992;SDS011;38875;52.216;21.040;2022-09-09T09:46:23;29.77;;;20.30;;
52992;SDS011;38875;52.216;21.040;2022-09-09T09:49:00;32.38;;;20.58;;
52992;SDS011;38875;52.216;21.040;2022-09-09T09:51:34;32.75;;;21.45;;
52992;SDS011;38875;52.216;21.040;2022-09-09T09:56:38;32.33;;;21.50;;
52992;SDS011;38875;52.216;21.040;2022-09-09T09:59:05;29.35;;;19.90;;
52992;SDS011;38875;52.216;21.040;2022-09-09T10:01:44;32.28;;;20.42;;
52992;SDS011;38875;52.216;21.040;2022-09-09T10:04:14;32.55;;;20.65;;
52992;SDS011;38875;52.216;21.040;2022-09-09T10:06:41;32.63;;;20.17;;
52992;SDS011;38875;52.216;21.040;2022-09-09T10:22:35;37.10;;;23.08;;
52992;SDS011;38875;52.216;21.040;2022-09-09T10:36:26;34.38;;;24.63;;
52992;SDS011;38875;52.216;21.040;2022-09-09T10:39:00;42.13;;;25.77;;
52992;SDS011;38875;52.216;21.040;2022-09-09T10:55:44;48.05;;;35.70;;
52992;SDS011;38875;52.216;21.040;2022-09-09T11:00:52;48.67;;;36.50;;
52992;SDS011;38875;52.216;21.040;2022-09-09T11:03:26;39.83;;;25.60;;
52992;SDS011;38875;52.216;21.040;2022-09-09T11:06:14;44.35;;;28.95;;
52992;SDS011;38875;52.216;21.040;2022-09-09T11:08:44;42.00;;;28.40;;
52992;SDS011;38875;52.216;21.040;2022-09-09T11:11:25;40.22;;;25.58;;
52992;SDS011;38875;52.216;21.040;2022-09-09T11:13:54;44.10;;;26.42;;
52992;SDS011;38875;52.216;21.040;2022-09-09T11:16:33;43.75;;;28.60;;
52992;SDS011;38875;52.216;21.040;2022-09-09T11:21:47;44.17;;;25.42;;
52992;SDS011;38875;52.216;21.040;2022-09-09T11:40:36;44.92;;;28.80;;
52992;SDS011;38875;52.216;21.040;2022-09-09T11:45:39;48.42;;;30.88;;
52992;SDS011;38875;52.216;21.040;2022-09-09T11:48:28;51.03;;;29.42;;
52992;SDS011;38875;52.216;21.040;2022-09-09T11:51:06;46.80;;;27.65;;
52992;SDS011;38875;52.216;21.040;2022-09-09T11:53:55;51.20;;;29.08;;
52992;SDS011;38875;52.216;21.040;2022-09-09T12:04:06;52.47;;;31.30;;
52992;SDS011;38875;52.216;21.040;2022-09-09T12:09:31;47.97;;;29.70;;
52992;SDS011;38875;52.216;21.040;2022-09-09T12:19:40;50.55;;;30.83;;
52992;SDS011;38875;52.216;21.040;2022-09-09T12:22:17;51.63;;;30.58;;
52992;SDS011;38875;52.216;21.040;2022-09-09T12:25:16;46.47;;;28.52;;
52992;SDS011;38875;52.216;21.040;2022-09-09T12:28:04;56.40;;;31.60;;
52992;SDS011;38875;52.216;21.040;2022-09-09T12:33:23;50.72;;;29.70;;
52992;SDS011;38875;52.216;21.040;2022-09-09T12:35:57;51.17;;;31.30;;
52992;SDS011;38875;52.216;21.040;2022-09-09T12:38:39;51.47;;;29.90;;
52992;SDS011;38875;52.216;21.040;2022-09-09T12:41:06;52.65;;;30.83;;
52992;SDS011;38875;52.216;21.040;2022-09-09T12:43:47;55.45;;;32.40;;
52992;SDS011;38875;52.216;21.040;2022-09-09T12:46:20;55.75;;;32.17;;
52992;SDS011;38875;52.216;21.040;2022-09-09T12:48:53;53.00;;;30.83;;
52992;SDS011;38875;52.216;21.040;2022-09-09T12:51:30;52.20;;;30.75;;
52992;SDS011;38875;52.216;21.040;2022-09-09T12:53:58;56.03;;;32.95;;
52992;SDS011;38875;52.216;21.040;2022-09-09T12:56:29;44.53;;;26.67;;
52992;SDS011;38875;52.216;21.040;2022-09-09T12:58:57;51.92;;;29.60;;
52992;SDS011;38875;52.216;21.040;2022-09-09T13:03:54;51.50;;;29.33;;
52992;SDS011;38875;52.216;21.040;2022-09-09T13:06:24;52.88;;;30.27;;
52992;SDS011;38875;52.216;21.040;2022-09-09T13:08:52;57.50;;;31.42;;
52992;SDS011;38875;52.216;21.040;2022-09-09T13:11:41;51.83;;;28.75;;
52992;SDS011;38875;52.216;21.040;2022-09-09T13:14:15;60.60;;;32.00;;
52992;SDS011;38875;52.216;21.040;2022-09-09T13:16:55;57.97;;;31.63;;
52992;SDS011;38875;52.216;21.040;2022-09-09T13:19:22;59.63;;;32.00;;
52992;SDS011;38875;52.216;21.040;2022-09-09T13:21:51;52.38;;;29.25;;
52992;SDS011;38875;52.216;21.040;2022-09-09T13:24:33;61.25;;;33.22;;
52992;SDS011;38875;52.216;21.040;2022-09-09T13:27:01;60.17;;;33.38;;
52992;SDS011;38875;52.216;21.040;2022-09-09T13:29:51;59.03;;;32.38;;
52992;SDS011;38875;52.216;21.040;2022-09-09T13:32:21;48.28;;;27.50;;
52992;SDS011;38875;52.216;21.040;2022-09-09T13:34:52;58.08;;;30.10;;
52992;SDS011;38875;52.216;21.040;2022-09-09T13:37:26;52.80;;;29.17;;
52992;SDS011;38875;52.216;21.040;2022-09-09T13:39:58;55.58;;;31.90;;
52992;SDS011;38875;52.216;21.040;2022-09-09T13:42:30;61.38;;;33.55;;
52992;SDS011;38875;52.216;21.040;2022-09-09T13:45:00;63.40;;;32.80;;
52992;SDS011;38875;52.216;21.040;2022-09-09T13:47:29;63.15;;;32.65;;
52992;SDS011;38875;52.216;21.040;2022-09-09T13:49:57;57.95;;;30.90;;
52992;SDS011;38875;52.216;21.040;2022-09-09T13:52:23;51.15;;;28.65;;
52992;SDS011;38875;52.216;21.040;2022-09-09T13:54:51;48.40;;;26.60;;
52992;SDS011;38875;52.216;21.040;2022-09-09T13:59:45;54.85;;;28.85;;
52992;SDS011;38875;52.216;21.040;2022-09-09T14:02:12;53.25;;;28.83;;
52992;SDS011;38875;52.216;21.040;2022-09-09T14:04:38;52.35;;;27.02;;
52992;SDS011;38875;52.216;21.040;2022-09-09T14:07:11;54.42;;;28.35;;
52992;SDS011;38875;52.216;21.040;2022-09-09T14:09:40;55.50;;;30.02;;
52992;SDS011;38875;52.216;21.040;2022-09-09T14:12:12;52.55;;;29.40;;
52992;SDS011;38875;52.216;21.040;2022-09-09T14:14:39;55.42;;;30.52;;
52992;SDS011;38875;52.216;21.040;2022-09-09T14:17:05;57.38;;;30.00;;
52992;SDS011;38875;52.216;21.040;2022-09-09T14:19:31;60.22;;;29.70;;
52992;SDS011;38875;52.216;21.040;2022-09-09T14:21:57;53.17;;;28.30;;
52992;SDS011;38875;52.216;21.040;2022-09-09T14:24:24;60.00;;;27.35;;
52992;SDS011;38875;52.216;21.040;2022-09-09T14:26:50;57.42;;;28.73;;
52992;SDS011;38875;52.216;21.040;2022-09-09T14:29:16;59.58;;;30.27;;
52992;SDS011;38875;52.216;21.040;2022-09-09T14:31:42;59.40;;;29.83;;
52992;SDS011;38875;52.216;21.040;2022-09-09T14:34:07;57.17;;;27.50;;
52992;SDS011;38875;52.216;21.040;2022-09-09T14:36:37;53.60;;;27.77;;
52992;SDS011;38875;52.216;21.040;2022-09-09T14:39:03;53.45;;;28.55;;
52992;SDS011;38875;52.216;21.040;2022-09-09T14:41:29;56.70;;;29.30;;
52992;SDS011;38875;52.216;21.040;2022-09-09T14:43:56;54.95;;;28.25;;
52992;SDS011;38875;52.216;21.040;2022-09-09T14:46:22;55.47;;;29.63;;
52992;SDS011;38875;52.216;21.040;2022-09-09T14:48:48;56.80;;;30.08;;
52992;SDS011;38875;52.216;21.040;2022-09-09T14:51:18;48.78;;;26.30;;
52992;SDS011;38875;52.216;21.040;2022-09-09T14:53:50;52.33;;;27.30;;
52992;SDS011;38875;52.216;21.040;2022-09-09T14:56:19;53.88;;;29.25;;
52992;SDS011;38875;52.216;21.040;2022-09-09T14:58:47;55.95;;;30.35;;
52992;SDS011;38875;52.216;21.040;2022-09-09T15:01:14;58.65;;;31.05;;
52992;SDS011;38875;52.216;21.040;2022-09-09T15:03:42;55.47;;;30.40;;
52992;SDS011;38875;52.216;21.040;2022-09-09T15:06:13;58.13;;;30.60;;
52992;SDS011;38875;52.216;21.040;2022-09-09T15:08:43;54.55;;;30.50;;
52992;SDS011;38875;52.216;21.040;2022-09-09T15:11:10;58.15;;;28.90;;
52992;SDS011;38875;52.216;21.040;2022-09-09T15:13:38;53.63;;;30.55;;
52992;SDS011;38875;52.216;21.040;2022-09-09T15:18:38;53.13;;;29.52;;
52992;SDS011;38875;52.216;21.040;2022-09-09T15:23:39;52.60;;;29.92;;
52992;SDS011;38875;52.216;21.040;2022-09-09T15:26:05;55.95;;;31.50;;
52992;SDS011;38875;52.216;21.040;2022-09-09T15:28:32;49.92;;;29.80;;
52992;SDS011;38875;52.216;21.040;2022-09-09T15:33:34;47.60;;;26.20;;
52992;SDS011;38875;52.216;21.040;2022-09-09T15:36:14;50.83;;;26.10;;
52992;SDS011;38875;52.216;21.040;2022-09-09T15:38:42;52.70;;;26.73;;
52992;SDS011;38875;52.216;21.040;2022-09-09T15:41:07;44.90;;;26.33;;
52992;SDS011;38875;52.216;21.040;2022-09-09T15:43:33;45.67;;;24.98;;
52992;SDS011;38875;52.216;21.040;2022-09-09T15:46:02;47.42;;;26.58;;
52992;SDS011;38875;52.216;21.040;2022-09-09T15:48:48;48.15;;;26.00;;
52992;SDS011;38875;52.216;21.040;2022-09-09T15:51:14;49.83;;;27.13;;
52992;SDS011;38875;52.216;21.040;2022-09-09T15:53:40;43.85;;;25.95;;
52992;SDS011;38875;52.216;21.040;2022-09-09T15:56:06;45.53;;;26.52;;
52992;SDS011;38875;52.216;21.040;2022-09-09T15:58:34;45.35;;;26.67;;
52992;SDS011;38875;52.216;21.040;2022-09-09T16:01:10;50.55;;;27.13;;
52992;SDS011;38875;52.216;21.040;2022-09-09T16:03:39;54.08;;;28.67;;
52992;SDS011;38875;52.216;21.040;2022-09-09T16:06:12;48.72;;;27.27;;
52992;SDS011;38875;52.216;21.040;2022-09-09T16:08:40;49.08;;;27.55;;
52992;SDS011;38875;52.216;21.040;2022-09-09T16:11:08;45.97;;;26.95;;
52992;SDS011;38875;52.216;21.040;2022-09-09T16:13:37;41.63;;;24.98;;
52992;SDS011;38875;52.216;21.040;2022-09-09T16:16:03;43.53;;;27.00;;
52992;SDS011;38875;52.216;21.040;2022-09-09T16:18:36;40.92;;;25.00;;
52992;SDS011;38875;52.216;21.040;2022-09-09T16:21:06;43.65;;;26.13;;
52992;SDS011;38875;52.216;21.040;2022-09-09T16:23:33;46.45;;;25.70;;
52992;SDS011;38875;52.216;21.040;2022-09-09T16:26:00;41.05;;;24.17;;
52992;SDS011;38875;52.216;21.040;2022-09-09T16:28:26;45.40;;;25.15;;
52992;SDS011;38875;52.216;21.040;2022-09-09T16:30:52;45.03;;;25.63;;
52992;SDS011;38875;52.216;21.040;2022-09-09T16:33:18;44.53;;;24.27;;
52992;SDS011;38875;52.216;21.040;2022-09-09T16:35:44;45.35;;;24.98;;
52992;SDS011;38875;52.216;21.040;2022-09-09T16:38:10;47.83;;;25.92;;
52992;SDS011;38875;52.216;21.040;2022-09-09T16:40:37;45.90;;;24.23;;
52992;SDS011;38875;52.216;21.040;2022-09-09T16:43:04;49.60;;;25.35;;
52992;SDS011;38875;52.216;21.040;2022-09-09T16:45:31;41.22;;;24.75;;
52992;SDS011;38875;52.216;21.040;2022-09-09T16:47:58;45.17;;;26.13;;
52992;SDS011;38875;52.216;21.040;2022-09-09T16:50:24;44.47;;;26.77;;
52992;SDS011;38875;52.216;21.040;2022-09-09T16:52:51;43.47;;;24.40;;
52992;SDS011;38875;52.216;21.040;2022-09-09T16:55:17;44.30;;;25.50;;
52992;SDS011;38875;52.216;21.040;2022-09-09T16:57:46;45.50;;;25.75;;